Time;durP1;ratioP1;P1;durP2;ratioP2;P2;SDS_P1;SDS_P2;PMS_P1;PMS_P2;Temp;Humidity;BMP_temperature;BMP_pressure;BME280_temperature;BME280_humidity;BME280_pressure;Samples;Min_cycle;Max_cycle;Signal;HPM_P1;HPM_P2
2022/08/11 00:00:07;;;;;;;;;43.50;35.50;;;;;26.56;46.68;100067.72;5024930;28;45409;-75
2022/08/11 00:02:39;;;;;;;;;44.75;38.75;;;;;26.58;47.54;100073.00;5018340;28;46194;-75
2022/08/11 00:05:12;;;;;;;;;38.25;33.50;;;;;26.62;46.59;100065.72;5018518;28;45466;-75
2022/08/11 00:07:44;;;;;;;;;35.50;32.50;;;;;26.70;46.63;100077.84;5033519;28;45537;-75
2022/08/11 00:10:15;;;;;;;;;34.50;31.75;;;;;26.77;46.23;100071.25;5025093;28;45292;-75
2022/08/11 00:12:43;;;;;;;;;38.50;34.25;;;;;26.84;45.92;100076.34;5029128;28;46876;-75
2022/08/11 00:15:11;;;;;;;;;35.25;32.25;;;;;26.81;45.80;100063.97;5018598;28;45294;-75
2022/08/11 00:17:37;;;;;;;;;34.75;31.75;;;;;26.88;45.94;100067.22;5033611;28;45512;-75
2022/08/11 00:20:09;;;;;;;;;39.50;33.00;;;;;26.83;45.86;100047.81;5018424;28;45229;-76
2022/08/11 00:22:38;;;;;;;;;35.50;32.25;;;;;26.87;46.02;100054.78;5018403;28;45592;-76
2022/08/11 00:25:19;;;;;;;;;29.25;29.25;;;;;26.96;45.58;100057.91;5018661;28;45152;-76
2022/08/11 00:27:47;;;;;;;;;36.00;31.25;;;;;26.99;45.47;100054.22;5018850;28;45385;-76
2022/08/11 00:30:13;;;;;;;;;38.50;33.00;;;;;26.99;45.68;100040.81;5019080;28;45461;-76
2022/08/11 00:32:43;;;;;;;;;36.00;32.25;;;;;26.95;46.03;100033.84;5018331;28;45565;-76
2022/08/11 00:35:12;;;;;;;;;34.25;31.00;;;;;26.93;46.08;100025.00;5018291;28;45596;-76
2022/08/11 00:37:43;;;;;;;;;33.25;30.50;;;;;26.90;45.77;100022.47;5017541;28;45224;-76
2022/08/11 00:40:18;;;;;;;;;35.00;31.50;;;;;26.90;46.10;100022.47;5018686;28;45290;-76
2022/08/11 00:43:05;;;;;;;;;34.75;30.00;;;;;26.88;46.04;100003.78;5018621;28;46494;-75
2022/08/11 00:45:40;;;;;;;;;33.50;30.50;;;;;26.85;46.74;99993.22;5018025;28;45342;-75
2022/08/11 00:48:20;;;;;;;;;32.50;29.50;;;;;26.81;46.46;99996.97;5025229;28;45481;-75
2022/08/11 00:51:00;;;;;;;;;32.25;29.50;;;;;26.76;46.37;99997.19;5019152;28;45496;-75
2022/08/11 00:53:53;;;;;;;;;31.25;29.75;;;;;26.75;46.70;99995.44;5017248;28;46086;-75
2022/08/11 00:56:42;;;;;;;;;33.50;30.50;;;;;26.68;47.09;99972.56;5017661;28;45369;-75
2022/08/11 00:59:47;;;;;;;;;30.00;27.00;;;;;26.63;47.31;99963.84;5028600;28;45366;-75
2022/08/11 01:02:45;;;;;;;;;28.25;28.00;;;;;26.57;47.51;99956.94;5037533;28;45585;-75
2022/08/11 01:05:33;;;;;;;;;29.25;27.75;;;;;26.57;47.35;99951.56;4988182;28;45515;-75
2022/08/11 01:08:04;;;;;;;;;34.25;32.00;;;;;26.49;47.81;99951.06;5017398;28;45246;-75
2022/08/11 01:10:58;;;;;;;;;29.75;28.75;;;;;26.43;48.22;99931.72;5017440;28;45417;-75
2022/08/11 01:13:45;;;;;;;;;32.00;28.50;;;;;26.41;47.96;99937.16;5032187;28;45504;-75
2022/08/11 01:16:38;;;;;;;;;27.75;27.25;;;;;26.40;47.50;99959.50;5036518;28;46299;-75
2022/08/11 01:19:16;;;;;;;;;32.50;28.25;;;;;26.41;47.50;99966.59;5017324;28;45471;-75
2022/08/11 01:21:59;;;;;;;;;27.50;25.50;;;;;26.43;47.79;99966.53;5032940;28;45586;-75
2022/08/11 01:24:56;;;;;;;;;23.00;22.25;;;;;26.44;47.42;99960.22;5025199;28;45328;-75
2022/08/11 01:27:31;;;;;;;;;23.33;23.33;;;;;26.31;48.89;99960.78;5019229;28;46149;-75
2022/08/11 01:30:09;;;;;;;;;18.33;17.00;;;;;26.36;47.49;99956.13;5021758;28;45452;-75
2022/08/11 01:33:07;;;;;;;;;21.00;19.00;;;;;26.50;47.12;99954.59;5027325;28;45414;-75
2022/08/11 01:35:48;;;;;;;;;19.00;18.00;;;;;26.56;46.58;99948.97;5025850;28;45244;-75
2022/08/11 01:38:13;;;;;;;;;18.33;18.00;;;;;26.70;46.25;99961.75;5031724;28;45626;-75
2022/08/11 01:41:04;;;;;;;;;16.00;15.33;;;;;26.79;46.21;99950.63;5021295;28;45660;-75
2022/08/11 01:46:55;;;;;;;;;19.00;15.33;;;;;26.91;45.86;99933.09;5023779;28;45540;-75
2022/08/11 01:49:29;;;;;;;;;16.67;16.00;;;;;26.95;45.67;99929.31;5035878;28;46167;-75
2022/08/11 01:52:07;;;;;;;;;14.00;14.00;;;;;27.02;45.36;99929.88;5035278;28;46041;-75
2022/08/11 01:54:52;;;;;;;;;15.00;14.67;;;;;27.09;44.86;99929.53;5022583;28;45421;-76
2022/08/11 01:57:55;;;;;;;;;12.67;12.00;;;;;27.16;45.00;99933.66;5036796;28;45577;-75
2022/08/11 02:00:27;;;;;;;;;13.67;13.67;;;;;27.15;45.00;99929.22;5018956;28;45411;-76
2022/08/11 02:03:20;;;;;;;;;14.00;13.33;;;;;27.11;44.72;99914.22;5016815;28;45422;-75
2022/08/11 02:05:59;;;;;;;;;13.67;13.33;;;;;27.37;44.22;99945.16;5029324;28;45414;-75
2022/08/11 02:08:40;;;;;;;;;14.00;14.00;;;;;27.44;44.43;99932.34;5036481;28;45453;-75
2022/08/11 02:11:35;;;;;;;;;16.00;14.67;;;;;27.48;44.35;99933.91;5035171;28;45931;-75
2022/08/11 02:14:22;;;;;;;;;14.67;13.67;;;;;27.53;44.14;99941.72;5035586;28;45374;-75
2022/08/11 02:17:10;;;;;;;;;14.00;13.00;;;;;27.53;44.16;99937.22;5029990;28;45479;-75
2022/08/11 02:26:07;;;;;;;;;13.67;13.67;;;;;27.44;44.18;99900.16;5031921;28;45436;-75
2022/08/11 02:29:09;;;;;;;;;14.00;14.00;;;;;27.62;44.23;99929.69;5016468;28;45414;-75
2022/08/11 02:34:41;;;;;;;;;15.00;14.00;;;;;27.66;43.63;99932.13;5031344;28;45813;-76
2022/08/11 02:37:17;;;;;;;;;14.67;14.67;;;;;27.58;43.89;99915.56;5016358;28;45620;-75
2022/08/11 02:39:54;;;;;;;;;13.00;12.67;;;;;27.65;44.75;99932.19;5036382;28;45298;-75
2022/08/11 02:42:29;;;;;;;;;14.33;13.33;;;;;27.58;44.52;99924.47;5019114;28;45481;-75
2022/08/11 02:45:28;;;;;;;;;13.33;13.33;;;;;27.63;44.37;99932.25;5021824;28;45484;-75
2022/08/11 02:51:12;;;;;;;;;12.67;12.33;;;;;27.65;44.70;99924.16;5015905;28;45524;-75
2022/08/11 02:53:50;;;;;;;;;16.33;14.00;;;;;27.63;44.90;99923.34;5029698;28;45459;-75
2022/08/11 02:56:25;;;;;;;;;14.00;13.00;;;;;27.62;44.76;99919.81;5018778;28;45358;-75
2022/08/11 03:02:01;;;;;;;;;13.33;12.33;;;;;27.58;44.92;99908.38;5026690;28;45517;-75
2022/08/11 03:04:47;;;;;;;;;10.33;10.00;;;;;27.59;44.70;99914.59;5020931;28;45557;-75
2022/08/11 03:07:33;;;;;;;;;13.00;12.33;;;;;27.51;44.99;99917.66;5039014;28;46168;-75
2022/08/11 03:10:08;;;;;;;;;23.67;22.67;;;;;27.49;45.87;99934.78;5031659;28;45442;-75
2022/08/11 03:19:21;;;;;;;;;21.67;19.67;;;;;27.13;46.40;99925.75;5022939;28;45489;-75
2022/08/11 03:21:55;;;;;;;;;19.67;18.67;;;;;27.12;47.19;99936.56;5031112;28;45410;-75
2022/08/11 03:24:30;;;;;;;;;18.67;18.33;;;;;27.02;47.47;99960.28;5031566;28;45252;-75
2022/08/11 03:27:01;;;;;;;;;19.00;18.00;;;;;27.03;46.98;99948.59;5020774;28;45564;-76
2022/08/11 03:29:30;;;;;;;;;19.00;18.33;;;;;27.04;47.11;99952.13;5018519;28;45473;-75
2022/08/11 03:32:06;;;;;;;;;21.67;19.67;;;;;27.04;46.89;99950.34;5029493;28;45781;-74
2022/08/11 03:34:36;;;;;;;;;19.67;19.00;;;;;27.03;47.62;99953.94;5027459;28;45444;-73
2022/08/11 03:44:03;;;;;;;;;19.33;18.33;;;;;26.95;48.21;99964.16;5033791;28;45510;-74
2022/08/11 03:46:54;;;;;;;;;19.00;17.00;;;;;26.91;47.21;99965.25;5030596;28;45214;-74
2022/08/11 03:49:41;;;;;;;;;16.67;16.67;;;;;26.96;46.84;99980.19;5027713;28;45333;-74
2022/08/11 03:52:16;;;;;;;;;21.00;20.00;;;;;26.97;45.58;99956.91;5033829;28;47741;-74
2022/08/11 03:54:59;;;;;;;;;20.00;18.00;;;;;27.02;46.54;99979.03;5018812;28;45494;-74
2022/08/11 03:58:13;;;;;;;;;17.33;16.33;;;;;27.04;46.54;99986.97;5024582;28;45538;-74
2022/08/11 04:00:56;;;;;;;;;20.00;18.67;;;;;27.03;46.18;99991.47;4961247;28;45846;-74
2022/08/11 04:03:42;;;;;;;;;19.00;18.00;;;;;26.91;46.79;99990.25;5024355;28;45417;-74
2022/08/11 04:06:16;;;;;;;;;20.00;19.33;;;;;26.91;46.91;99992.91;5037977;28;45987;-74
2022/08/11 04:09:10;;;;;;;;;20.67;20.00;;;;;26.78;47.73;99987.28;5037222;28;45517;-74
2022/08/11 04:12:07;;;;;;;;;19.00;18.67;;;;;26.79;47.57;100004.22;5026958;28;45296;-77
2022/08/11 04:17:46;;;;;;;;;27.00;26.33;;;;;26.71;47.90;100006.38;5018591;28;45483;-74
2022/08/11 04:20:30;;;;;;;;;29.00;27.25;;;;;26.47;47.88;99971.69;5017770;28;45348;-73
2022/08/11 04:23:25;;;;;;;;;37.50;31.75;;;;;26.70;47.41;100002.84;5018774;28;45500;-74
2022/08/11 04:26:21;;;;;;;;;34.25;31.75;;;;;26.69;47.27;100008.25;5032670;28;45557;-74
2022/08/11 04:29:04;;;;;;;;;29.25;26.50;;;;;26.67;47.70;100016.34;5030840;28;45584;-75
2022/08/11 04:31:39;;;;;;;;;31.25;30.00;;;;;26.70;47.50;100012.66;5022719;28;45524;-75
2022/08/11 04:34:40;;;;;;;;;31.33;28.67;;;;;26.71;47.22;100004.56;5019907;28;45450;-75
2022/08/11 04:37:39;;;;;;;;;25.25;25.25;;;;;26.72;47.18;100003.63;5027774;28;45467;-75
2022/08/11 04:40:29;;;;;;;;;28.75;27.50;;;;;26.76;47.60;100007.91;5026719;28;45394;-74
2022/08/11 04:43:31;;;;;;;;;32.00;30.25;;;;;26.74;48.26;100016.94;5033075;28;45437;-74
2022/08/11 04:46:16;;;;;;;;;30.00;28.50;;;;;26.61;48.39;100013.09;5018609;28;45374;-75
2022/08/11 05:01:41;;;;;;;;;30.75;27.50;;;;;26.55;49.12;100012.38;5026553;28;45829;-74
2022/08/11 05:07:03;;;;;;;;;28.50;27.50;;;;;26.48;49.86;100008.25;5029613;28;45437;-74
2022/08/11 05:09:44;;;;;;;;;29.00;28.00;;;;;26.42;50.51;100008.50;5029675;28;45430;-74
2022/08/11 05:12:45;;;;;;;;;26.25;25.25;;;;;26.44;50.20;100008.44;5019959;28;45459;-75
2022/08/11 05:35:37;;;;;;;;;33.25;30.50;;;;;25.75;54.06;100042.53;5017356;28;45448;-74
2022/08/11 05:57:48;;;;;;;;;29.25;27.50;;;;;25.93;53.09;100032.91;5016667;28;45484;-74
2022/08/11 06:00:14;;;;;;;;;30.75;26.25;;;;;26.01;53.86;100051.31;5016835;28;45280;-74
2022/08/11 06:02:56;;;;;;;;;27.50;26.25;;;;;25.99;53.84;100056.75;5016955;28;45235;-74
2022/08/11 06:05:22;;;;;;;;;28.75;26.00;;;;;25.87;53.80;100034.94;5017277;28;45482;-74
2022/08/11 06:07:52;;;;;;;;;33.50;31.25;;;;;25.90;54.42;100054.44;5016688;28;45332;-75
2022/08/11 06:10:39;;;;;;;;;36.25;30.50;;;;;25.93;53.95;100051.66;5016364;28;45537;-75
2022/08/11 06:13:07;;;;;;;;;41.50;35.50;;;;;25.91;53.84;100060.69;5029003;28;45476;-75
2022/08/11 06:15:43;;;;;;;;;37.50;33.00;;;;;25.81;54.23;100062.81;5026482;28;45504;-75
2022/08/11 06:18:11;;;;;;;;;41.75;34.00;;;;;25.64;53.75;100041.22;5034017;28;45470;-75
2022/08/11 06:20:57;;;;;;;;;41.25;33.75;;;;;25.72;54.49;100064.06;5015708;28;45623;-75
2022/08/11 06:23:29;;;;;;;;;37.75;33.25;;;;;25.76;54.41;100059.44;5026607;28;45557;-76
2022/08/11 06:25:57;;;;;;;;;31.75;30.25;;;;;25.43;53.58;100006.41;5033372;28;45403;-76
2022/08/11 06:28:36;;;;;;;;;35.75;32.25;;;;;25.76;53.60;100060.31;5019340;28;45480;-76
2022/08/11 06:31:18;;;;;;;;;33.00;31.50;;;;;25.47;54.61;100021.38;5035471;28;45389;-76
2022/08/11 06:33:49;;;;;;;;;34.00;31.00;;;;;25.71;55.44;100056.97;5018387;28;45547;-76
2022/08/11 06:36:44;;;;;;;;;29.50;28.25;;;;;25.49;54.99;100016.84;5020848;28;45741;-76
2022/08/11 06:39:26;;;;;;;;;27.75;27.50;;;;;25.73;54.86;100049.75;5027836;28;45320;-74
2022/08/11 06:42:13;;;;;;;;;33.50;30.25;;;;;25.79;54.22;100038.81;5038559;28;45514;-74
2022/08/11 06:45:06;;;;;;;;;32.50;30.25;;;;;25.94;53.78;100037.34;5038558;28;45559;-75
2022/08/11 06:47:32;;;;;;;;;32.00;30.50;;;;;26.02;53.87;100028.09;5021264;28;45469;-75
2022/08/11 06:52:45;;;;;;;;;30.50;27.75;;;;;26.26;53.21;100002.97;5033277;28;46260;-75
2022/08/11 07:01:06;;;;;;;;;20.67;19.33;;;;;28.15;46.91;99988.69;5031314;28;45402;-75
2022/08/11 07:03:43;;;;;;;;;23.00;21.67;;;;;29.50;45.65;100001.16;5038206;28;45382;-75
2022/08/11 07:06:24;;;;;;;;;32.00;28.75;;;;;32.18;41.93;99996.09;5025796;28;45368;-75
2022/08/11 07:28:53;;;;;;;;;21.33;21.33;;;;;36.21;33.96;100011.25;5027662;28;45457;-76
2022/08/11 07:29:00;;;;;;;;;20.00;20.00;;;;;31.92;40.42;99993.31;5018555;28;45434;-75
2022/08/11 07:31:29;;;;;;;;;28.33;27.00;;;;;31.51;42.54;100006.88;5018492;28;45335;-75
2022/08/11 07:34:01;;;;;;;;;30.00;26.00;;;;;31.12;43.32;100005.81;5018086;28;46209;-76
2022/08/11 07:36:29;;;;;;;;;22.00;20.00;;;;;31.24;42.84;99993.34;5017975;28;45512;-74
2022/08/11 07:38:56;;;;;;;;;26.00;23.00;;;;;31.33;42.92;99993.59;5026635;28;45480;-74
2022/08/11 07:41:23;;;;;;;;;25.67;23.67;;;;;31.38;42.77;99981.66;5036211;28;45426;-75
2022/08/11 07:44:07;;;;;;;;;26.33;25.33;;;;;31.11;43.91;99972.53;5025765;28;46260;-74
2022/08/11 07:54:54;;;;;;;;;23.67;21.33;;;;;33.99;38.25;99968.56;5028658;28;45373;-74
2022/08/11 08:19:19;;;;;;;;;31.50;30.25;;;;;44.01;25.34;99943.84;5016855;28;45554;-77
2022/08/11 08:21:47;;;;;;;;;16.67;16.00;;;;;44.70;23.08;99886.84;5027351;28;45672;-77
2022/08/11 08:24:14;;;;;;;;;17.67;16.67;;;;;45.87;22.67;99892.16;5022036;28;45541;-78
2022/08/11 08:26:57;;;;;;;;;14.67;14.00;;;;;46.94;21.64;99950.84;5017273;28;45565;-76
2022/08/11 08:32:15;;;;;;;;;14.67;14.67;;;;;46.36;18.47;99658.38;5018064;28;45441;-76
2022/08/11 08:34:41;;;;;;;;;11.00;11.00;;;;;47.54;17.93;99749.91;5018404;28;45363;-77
2022/08/11 08:37:07;;;;;;;;;12.67;12.00;;;;;49.42;17.37;99955.22;5017497;28;46606;-76
2022/08/11 08:39:36;;;;;;;;;13.00;11.33;;;;;49.73;16.69;99909.97;5017856;28;45320;-77
2022/08/11 08:42:08;;;;;;;;;12.33;12.00;;;;;49.45;17.34;99935.38;5017522;28;45530;-77
2022/08/11 08:44:45;;;;;;;;;10.67;10.67;;;;;47.67;18.74;99865.28;5017593;28;45395;-76
2022/08/11 08:47:18;;;;;;;;;10.33;10.00;;;;;47.17;18.10;99757.81;5017679;28;45213;-77
2022/08/11 08:49:57;;;;;;;;;9.00;9.00;;;;;48.65;16.31;99799.88;5017775;28;45441;-77
2022/08/11 08:52:27;;;;;;;;;9.00;9.00;;;;;50.06;15.48;99929.06;5022086;28;45518;-77
2022/08/11 08:54:57;;;;;;;;;7.00;6.67;;;;;50.27;14.62;99896.44;5035598;28;45507;-76
2022/08/11 08:57:26;;;;;;;;;7.67;7.67;;;;;49.12;13.70;99745.84;5035283;28;45623;-76
2022/08/11 08:59:53;;;;;;;;;7.33;7.00;;;;;49.20;14.23;99852.91;5035896;28;45394;-76
2022/08/11 09:02:24;;;;;;;;;9.00;9.00;;;;;48.80;14.41;99774.66;5036000;28;45375;-76
2022/08/11 09:04:50;;;;;;;;;7.67;7.00;;;;;49.67;15.02;99866.44;5023656;28;45343;-76
2022/08/11 09:07:19;;;;;;;;;9.00;9.00;;;;;48.73;14.90;99642.50;5014682;28;48065;-76
2022/08/11 09:09:48;;;;;;;;;7.67;7.67;;;;;49.56;14.06;99702.31;5016426;28;45385;-76
2022/08/11 09:12:16;;;;;;;;;8.67;8.67;;;;;50.53;14.17;99795.22;5024907;28;45519;-77
2022/08/11 09:15:04;;;;;;;;;7.33;7.00;;;;;51.16;14.25;99873.72;5021805;28;45409;-76
2022/08/11 09:17:42;;;;;;;;;8.67;8.67;;;;;51.64;13.72;99900.63;5016279;28;46225;-77
2022/08/11 09:20:16;;;;;;;;;7.67;7.67;;;;;50.32;14.00;99735.41;5024263;28;45667;-77
2022/08/11 09:28:19;;;;;;;;;7.67;7.67;;;;;49.74;13.53;99789.50;5027193;28;45839;-78
2022/08/11 09:30:53;;;;;;;;;8.00;8.00;;;;;48.73;14.28;99714.56;5034532;28;45465;-76
2022/08/11 09:33:21;;;;;;;;;8.00;7.67;;;;;47.29;14.92;99712.94;5022092;28;45517;-77
2022/08/11 09:35:48;;;;;;;;;9.33;8.67;;;;;46.09;16.84;99650.03;5018279;28;45203;-77
2022/08/11 09:41:09;;;;;;;;;7.33;7.33;;;;;44.97;18.59;99901.81;5035400;28;45560;-76
2022/08/11 09:46:27;;;;;;;;;8.67;8.67;;;;;42.72;20.61;99827.22;5026286;28;45482;-77
2022/08/11 09:49:00;;;;;;;;;9.67;9.00;;;;;42.44;21.42;99898.16;5014774;28;46648;-77
2022/08/11 09:51:30;;;;;;;;;10.67;10.33;;;;;41.76;21.66;99872.91;5031610;28;45529;-77
2022/08/11 09:53:59;;;;;;;;;9.33;9.00;;;;;41.19;22.63;99871.00;5028656;28;45413;-77
2022/08/11 09:59:12;;;;;;;;;8.67;8.67;;;;;40.97;22.44;99888.03;5030383;28;45650;-76
2022/08/11 10:01:47;;;;;;;;;9.67;8.67;;;;;39.34;23.28;99583.50;5015776;28;45628;-77
2022/08/11 10:04:16;;;;;;;;;8.67;8.00;;;;;39.71;23.04;99646.00;5016213;28;45405;-76
2022/08/11 10:07:04;;;;;;;;;9.67;9.00;;;;;41.21;23.49;99890.88;5029369;28;45346;-77
2022/08/11 10:09:50;;;;;;;;;8.33;8.33;;;;;41.17;23.12;99897.69;5016064;28;45393;-77
2022/08/11 10:12:26;;;;;;;;;9.67;9.67;;;;;40.17;24.84;99750.50;5032570;28;45695;-76
2022/08/11 10:20:35;;;;;;;;;8.00;8.00;;;;;39.44;24.50;99699.03;4994789;28;45529;-76
2022/08/11 10:28:34;;;;;;;;;9.00;9.00;;;;;42.27;24.64;99909.19;5037202;28;45440;-76
2022/08/11 10:34:04;;;;;;;;;11.33;10.33;;;;;41.91;23.85;99906.00;5036841;28;45457;-76
2022/08/11 10:36:47;;;;;;;;;10.00;9.00;;;;;41.65;24.36;99904.28;5028800;28;45445;-76
2022/08/11 10:39:17;;;;;;;;;24.00;24.00;;;;;41.18;24.05;99873.91;5018548;28;45479;-76
2022/08/11 10:44:36;;;;;;;;;9.67;9.00;;;;;40.54;24.75;99910.78;5026981;28;45263;-77
2022/08/11 11:00:58;;;;;;;;;9.00;8.33;;;;;42.77;21.66;99709.41;5018666;28;45462;-77
2022/08/11 11:03:29;;;;;;;;;10.33;9.33;;;;;42.90;20.89;99613.53;5033590;28;45413;-77
2022/08/11 11:06:08;;;;;;;;;11.33;11.00;;;;;44.28;19.80;99809.38;5018199;28;45577;-77
2022/08/11 11:08:53;;;;;;;;;10.33;9.67;;;;;44.30;19.37;99796.28;5065734;28;45458;-77
2022/08/11 11:17:54;;;;;;;;;10.00;10.00;;;;;43.91;19.35;99738.75;5018724;28;45463;-77
2022/08/11 11:19:45;;;;;;;;;11.00;11.00;;;;;43.74;20.64;99887.50;5017929;28;45547;-77
2022/08/11 11:25:19;;;;;;;;;10.33;9.00;;;;;43.36;20.37;99881.13;5037721;28;45252;-77
2022/08/11 11:28:19;;;;;;;;;8.33;7.67;;;;;42.82;20.29;99825.09;5037997;28;45437;-77
2022/08/11 11:31:01;;;;;;;;;9.00;8.67;;;;;42.86;20.73;99899.78;4996998;28;45446;-77
2022/08/11 11:33:48;;;;;;;;;9.00;8.33;;;;;42.66;20.49;99874.59;5038422;28;45569;-77
2022/08/11 11:36:26;;;;;;;;;9.67;8.33;;;;;42.46;21.73;99874.16;5035325;28;45619;-76
2022/08/11 11:38:55;;;;;;;;;10.00;10.00;;;;;41.78;21.49;99796.78;5017442;28;45358;-77
2022/08/11 11:41:25;;;;;;;;;9.00;9.00;;;;;41.96;21.72;99856.94;5028246;28;45499;-76
2022/08/11 11:43:56;;;;;;;;;9.00;9.00;;;;;39.98;21.85;99548.38;5025906;28;45561;-76
2022/08/11 11:46:27;;;;;;;;;11.00;10.67;;;;;41.77;21.63;99871.03;5017613;28;45389;-78
2022/08/11 11:48:59;;;;;;;;;7.33;7.33;;;;;40.75;20.68;99720.63;5018073;28;45496;-77
2022/08/11 11:51:26;;;;;;;;;8.00;8.00;;;;;41.46;20.74;99856.09;5018279;28;45469;-76
2022/08/11 11:53:53;;;;;;;;;11.00;11.00;;;;;40.19;21.54;99694.75;5018599;28;45165;-75
2022/08/11 11:56:22;;;;;;;;;12.00;12.00;;;;;40.88;22.37;99876.19;5017811;28;46844;-76
2022/08/11 12:01:33;;;;;;;;;11.00;11.00;;;;;39.73;23.37;99686.84;5018078;28;45503;-75
2022/08/11 12:04:04;;;;;;;;;12.00;12.00;;;;;39.77;22.41;99735.59;5018225;28;45497;-77
2022/08/11 12:06:31;;;;;;;;;15.33;15.33;;;;;39.19;23.07;99652.38;5016104;28;45563;-76
2022/08/11 12:08:58;;;;;;;;;15.33;13.00;;;;;39.47;23.90;99687.75;5023459;28;45525;-76
2022/08/11 12:14:11;;;;;;;;;12.67;12.67;;;;;39.99;23.14;99763.41;5020171;28;45594;-76
2022/08/11 12:16:39;;;;;;;;;14.33;13.67;;;;;39.41;23.66;99687.50;5017418;28;46674;-77
2022/08/11 12:19:10;;;;;;;;;12.00;12.00;;;;;38.61;23.42;99606.53;5024365;28;45415;-77
2022/08/11 12:21:37;;;;;;;;;13.67;13.67;;;;;38.29;24.00;99605.19;5017179;28;45481;-76
2022/08/11 12:29:18;;;;;;;;;13.33;12.33;;;;;38.48;24.42;99639.66;5017148;28;45374;-76
2022/08/11 12:31:45;;;;;;;;;14.67;13.00;;;;;38.91;24.58;99752.66;5017322;28;45598;-76
2022/08/11 12:34:14;;;;;;;;;13.67;12.67;;;;;39.17;24.61;99817.44;5035590;28;45211;-76
2022/08/11 12:36:49;;;;;;;;;15.33;14.00;;;;;39.34;24.97;99816.56;5032501;28;46128;-76
2022/08/11 12:45:26;;;;;;;;;16.33;15.33;;;;;38.48;24.81;99647.84;5026275;28;45366;-76
2022/08/11 12:53:32;;;;;;;;;14.33;13.67;;;;;38.96;23.69;99694.88;5017238;28;45319;-76
2022/08/11 12:58:51;;;;;;;;;14.67;13.33;;;;;39.93;23.68;99706.63;5016996;28;45892;-77
2022/08/11 13:06:50;;;;;;;;;12.67;12.67;;;;;37.69;22.95;99416.81;5037428;28;45598;-76
2022/08/11 13:09:17;;;;;;;;;13.00;13.00;;;;;40.08;23.60;99794.41;5036333;28;45425;-76
2022/08/11 13:14:31;;;;;;;;;13.00;13.00;;;;;39.37;22.33;99605.84;5036657;28;45271;-77
2022/08/11 13:19:44;;;;;;;;;14.33;14.00;;;;;41.37;21.69;99793.25;5035930;28;45842;-77
2022/08/11 13:22:11;;;;;;;;;35.75;33.00;;;;;40.75;22.06;99657.63;5018256;28;45694;-77
2022/08/11 13:24:38;;;;;;;;;11.67;11.67;;;;;41.79;22.47;99790.28;5016224;28;45473;-77
2022/08/11 13:27:05;;;;;;;;;13.33;13.33;;;;;39.88;22.20;99498.47;5018032;28;45456;-77
2022/08/11 13:29:31;;;;;;;;;18.67;15.67;;;;;41.14;22.85;99737.19;5027744;28;46422;-77
2022/08/11 13:32:00;;;;;;;;;13.33;12.67;;;;;39.89;22.70;99584.94;5016343;28;45359;-77
2022/08/11 13:34:32;;;;;;;;;14.67;14.67;;;;;39.09;23.25;99495.09;5016880;28;45549;-77
2022/08/11 13:37:03;;;;;;;;;13.67;13.67;;;;;40.53;24.07;99766.72;5015980;28;45446;-76
2022/08/11 13:39:30;;;;;;;;;12.67;12.67;;;;;40.94;23.51;99794.19;5016664;28;45568;-76
2022/08/11 13:41:58;;;;;;;;;13.67;13.33;;;;;40.66;23.02;99724.31;5016710;28;45572;-76
2022/08/11 13:44:28;;;;;;;;;15.33;15.00;;;;;39.52;23.27;99477.69;5016014;28;45461;-77
2022/08/11 13:47:05;;;;;;;;;15.00;14.00;;;;;40.71;22.68;99650.75;5016904;28;45556;-77
2022/08/11 13:49:35;;;;;;;;;13.00;13.00;;;;;41.96;22.76;99769.13;5016065;28;46286;-77
2022/08/11 13:52:02;;;;;;;;;10.33;10.00;;;;;42.31;22.00;99781.56;5016754;28;45908;-76
2022/08/11 13:54:37;;;;;;;;;13.00;13.00;;;;;42.13;22.16;99765.34;5016693;28;45229;-78
2022/08/11 13:57:05;;;;;;;;;13.00;12.33;;;;;41.79;22.94;99756.53;5046262;28;45508;-77
2022/08/11 13:59:31;;;;;;;;;13.67;13.33;;;;;41.35;22.65;99744.09;5016096;28;45363;-76
2022/08/11 14:02:14;;;;;;;;;13.00;13.00;;;;;39.30;23.90;99465.47;5028425;28;45391;-77
2022/08/11 14:04:44;;;;;;;;;14.33;13.67;;;;;39.86;23.27;99642.66;5018401;28;45430;-77
2022/08/11 14:07:13;;;;;;;;;14.00;14.00;;;;;39.82;23.57;99663.16;5034304;28;45481;-78
2022/08/11 14:09:43;;;;;;;;;12.33;12.33;;;;;40.30;24.81;99738.25;5022663;28;46566;-77
2022/08/11 14:15:21;;;;;;;;;15.33;14.00;;;;;39.29;25.08;99585.84;5015448;28;45434;-77
2022/08/11 14:18:08;;;;;;;;;14.33;13.67;;;;;39.27;24.78;99572.34;5015624;28;45479;-76
2022/08/11 14:23:34;;;;;;;;;15.00;14.67;;;;;39.36;25.75;99609.63;5021922;28;45394;-77
2022/08/11 14:28:46;;;;;;;;;15.67;15.00;;;;;39.62;25.85;99625.16;5026433;28;45446;-76
2022/08/11 14:31:14;;;;;;;;;14.67;14.67;;;;;39.27;25.10;99561.41;5014015;28;47181;-76
2022/08/11 14:33:41;;;;;;;;;16.33;16.00;;;;;40.66;25.25;99782.66;5015127;28;45379;-76
2022/08/11 14:36:10;;;;;;;;;14.00;14.00;;;;;40.04;24.99;99637.97;5015389;28;45581;-76
2022/08/11 14:38:37;;;;;;;;;14.67;14.67;;;;;40.69;25.65;99754.09;5015461;28;45173;-76
2022/08/11 14:49:19;;;;;;;;;26.00;24.67;;;;;40.16;25.41;99605.69;5026924;28;45403;-77
2022/08/11 14:51:47;;;;;;;;;29.50;28.00;;;;;41.24;25.42;99769.94;5034194;28;45461;-77
2022/08/11 14:56:59;;;;;;;;;16.00;16.00;;;;;39.01;24.12;99413.16;5019004;28;45629;-76
2022/08/11 14:59:25;;;;;;;;;18.00;17.67;;;;;39.81;24.52;99561.13;5037874;28;45449;-76
2022/08/11 15:04:35;;;;;;;;;16.33;16.00;;;;;40.41;24.04;99630.34;5019200;28;45412;-76
2022/08/11 15:07:00;;;;;;;;;17.67;15.00;;;;;39.55;23.98;99422.69;5025012;28;45753;-75
2022/08/11 15:09:26;;;;;;;;;16.67;14.67;;;;;41.14;23.73;99645.94;5026825;28;45482;-77
2022/08/11 15:12:07;;;;;;;;;15.00;14.00;;;;;42.04;23.57;99749.09;5024885;28;45535;-77
2022/08/11 15:17:20;;;;;;;;;21.00;20.33;;;;;42.27;23.24;99750.00;5023832;28;45572;-75
2022/08/11 15:25:18;;;;;;;;;18.00;17.67;;;;;42.18;22.69;99729.13;5031129;28;45596;-76
2022/08/11 15:38:59;;;;;;;;;14.67;14.00;;;;;41.43;22.04;99722.13;5018222;28;45400;-77
2022/08/11 15:47:39;;;;;;;;;13.00;12.33;;;;;41.32;22.40;99728.81;5025911;28;45552;-76
2022/08/11 15:50:08;;;;;;;;;14.33;13.67;;;;;40.22;22.62;99539.34;5034125;28;45530;-77
2022/08/11 15:52:45;;;;;;;;;15.33;14.67;;;;;39.83;22.83;99484.41;5036050;28;45385;-77
2022/08/11 15:55:10;;;;;;;;;12.67;12.33;;;;;41.11;22.92;99706.56;5036861;28;45760;-77
2022/08/11 16:05:58;;;;;;;;;14.67;12.67;;;;;40.74;22.06;99643.06;5017740;28;45500;-77
2022/08/11 16:08:26;;;;;;;;;13.67;13.00;;;;;39.09;22.72;99397.63;5017170;28;45548;-78
2022/08/11 16:10:55;;;;;;;;;12.67;12.33;;;;;40.64;22.21;99649.72;5035544;28;45290;-77
2022/08/11 16:18:52;;;;;;;;;13.00;12.00;;;;;40.86;23.04;99694.75;5019197;28;45382;-75
2022/08/11 16:21:22;;;;;;;;;15.67;15.67;;;;;40.87;22.76;99680.91;5036265;28;45504;-76
2022/08/11 16:23:51;;;;;;;;;16.67;16.00;;;;;40.30;23.06;99596.81;5017994;28;45516;-76
2022/08/11 16:26:23;;;;;;;;;21.00;18.67;;;;;40.67;22.67;99663.03;5017405;28;45377;-77
2022/08/11 16:28:53;;;;;;;;;17.00;16.67;;;;;40.71;23.51;99676.25;5017382;28;45924;-77
2022/08/11 16:31:23;;;;;;;;;15.33;15.33;;;;;40.47;23.44;99636.03;5017489;28;45651;-76
2022/08/11 16:33:51;;;;;;;;;18.33;17.67;;;;;39.31;23.36;99480.00;5018233;28;45540;-77
2022/08/11 16:39:05;;;;;;;;;15.00;15.00;;;;;39.19;23.13;99454.84;5036379;28;45215;-77
2022/08/11 16:47:26;;;;;;;;;16.67;16.33;;;;;39.34;23.49;99447.72;4980606;28;45357;-77
2022/08/11 16:49:53;;;;;;;;;14.67;14.00;;;;;38.85;23.08;99409.28;4994329;28;45583;-76
2022/08/11 16:52:21;;;;;;;;;17.67;17.00;;;;;40.36;23.92;99659.09;5014646;28;45290;-76
2022/08/11 16:54:47;;;;;;;;;16.00;15.00;;;;;40.16;23.80;99650.28;5020011;28;45396;-76
2022/08/11 17:00:13;;;;;;;;;16.67;15.00;;;;;40.13;24.94;99636.97;5023215;28;45358;-77
2022/08/11 17:14:10;;;;;;;;;18.00;17.33;;;;;39.89;25.46;99653.28;5022188;28;45539;-76
2022/08/11 17:16:39;;;;;;;;;17.33;17.33;;;;;39.85;26.89;99658.19;5020543;28;45505;-76